手機新寵

[ 244 主題 / 126 回復 ]

版主: *空缺中*

    標題 作者 回復/查看 最後發表
common   Windows Phone加入Google日曆同步功能 lkenedyww6895 2013-3-18 0/1612 lkenedyww6895 2013-3-18 07:14
common   Android《幸福街 Happy Street》快樂經營攻略 ertebewwr1526 2013-3-11 0/1181 ertebewwr1526 2013-3-11 16:39
common   貪婪的微軟:中興每部WP手機交27刀授權費 earsowwn1235 2013-2-26 0/1202 earsowwn1235 2013-2-26 12:23
common   俄?斯??12月14日起?售苹果公司iPhone 5手机 lilichen3729 2013-2-24 0/1091 lilichen3729 2013-2-24 23:49
common   《寵物王國5-彩虹》所有寵物資料及心得 lilichen3729 2013-2-23 0/1154 lilichen3729 2013-2-23 06:17
common   採用另類外觀 HTC MyTouch 4G跌至1899元 lilichen3729 2013-2-21 0/1204 lilichen3729 2013-2-21 18:30
common   水乳交融 微軟Bing地圖將鐫刻Nokia烙印 iatricwwe2395 2013-2-20 0/1109 iatricwwe2395 2013-2-20 20:19
common   超值大容量苹果4S 港行32G促?3999元 earsowwn1235 2013-2-19 0/1193 earsowwn1235 2013-2-19 17:54
common   麻將天下(13張四人麻雀) earsowwn1235 2013-2-18 0/1187 earsowwn1235 2013-2-18 15:23
common   性能強勁娛樂霸主 索尼LT26i售3450元 earsowwn1235 2013-2-17 0/1126 earsowwn1235 2013-2-17 12:19
common   不拋棄不放棄 諾基亞2月8日更新Belle ertebewwr1526 2013-2-16 0/1203 ertebewwr1526 2013-2-16 10:21
common   I9300/XT889?? 十品牌安卓4.0机型搜? lkenedyww6895 2013-2-15 0/1188 lkenedyww6895 2013-2-15 07:18
common   高端雙模雙待 雙模旗艦三星I919再次到貨 earsowwn1235 2013-2-13 0/1105 earsowwn1235 2013-2-13 23:18
common   1.4GHz芯Mango新機 三星Omnia W現身MWC iatricwwe2395 2013-2-13 0/1089 iatricwwe2395 2013-2-13 19:45
common   合約機100美元 Galaxy Nexus售價下降 iatricwwe2395 2013-2-13 0/1095 iatricwwe2395 2013-2-13 16:20
common   螢幕系統一起動 概念機諾基亞Kinetic亮相 artinezww5789 2013-2-13 0/1233 artinezww5789 2013-2-13 10:46
common   千元智能時代 Android系統中興N780上市 lesliwwe2148 2013-2-11 0/1191 lesliwwe2148 2013-2-11 22:53
common   雙倍銷量 2012中興將兼顧WP7和安卓發展 ertebewwr1526 2013-2-8 0/1257 ertebewwr1526 2013-2-8 04:22
common   簡約不失時尚 炫酷機三星S5830 iatricwwe2395 2013-2-8 0/1262 iatricwwe2395 2013-2-8 00:38
common   諾基亞 3110c earsowwn1235 2013-2-8 0/1208 earsowwn1235 2013-2-8 00:03
    類型 排序方式 時間範圍